Time;durP1;ratioP1;P1;durP2;ratioP2;P2;SDS_P1;SDS_P2;PMS_P1;PMS_P2;Temp;Humidity;BMP_temperature;BMP_pressure;BME280_temperature;BME280_humidity;BME280_pressure;Samples;Min_cycle;Max_cycle;Signal;HPM_P1;HPM_P2
2023/01/09 00:00:26;;;;;;;3.20;0.82;;;;;;;10.31;76.53;98443.22;10217403;28;20086;-60
2023/01/09 00:05:27;;;;;;;3.88;0.60;;;;;;;10.21;77.13;98441.00;10218668;28;20492;-61
2023/01/09 00:10:29;;;;;;;1.27;0.63;;;;;;;10.16;77.29;98440.00;10216883;29;20562;-61
2023/01/09 00:15:30;;;;;;;2.13;0.63;;;;;;;10.12;77.46;98434.25;10212934;28;20127;-61
2023/01/09 00:20:31;;;;;;;2.15;0.85;;;;;;;10.09;77.86;98432.84;10203508;28;20055;-60
2023/01/09 00:25:33;;;;;;;0.95;0.63;;;;;;;10.11;77.93;98421.88;10214006;29;20074;-61
2023/01/09 00:30:34;;;;;;;2.00;0.95;;;;;;;10.06;78.28;98413.66;10215044;28;20052;-59
2023/01/09 00:35:36;;;;;;;1.23;0.90;;;;;;;10.05;78.55;98412.84;10220739;28;20052;-58
2023/01/09 00:40:37;;;;;;;1.23;0.90;;;;;;;10.05;78.71;98409.31;10207774;28;20586;-59
2023/01/09 00:45:39;;;;;;;3.47;1.23;;;;;;;10.09;78.78;98410.53;10213228;28;20092;-58
2023/01/09 00:50:41;;;;;;;3.33;1.63;;;;;;;10.07;79.15;98407.25;10212693;28;20585;-58
2023/01/09 00:55:43;;;;;;;3.40;2.08;;;;;;;10.07;79.43;98408.09;10212946;29;20139;-59
2023/01/09 01:00:44;;;;;;;3.45;2.17;;;;;;;10.06;79.45;98402.94;10211334;28;20147;-60
2023/01/09 01:11:09;;;;;;;4.40;2.20;;;;;;;10.14;79.36;98389.22;10205272;28;20146;-57
2023/01/09 01:16:12;;;;;;;3.95;2.83;;;;;;;10.11;79.67;98387.81;10215309;28;20373;-59
2023/01/09 01:21:13;;;;;;;4.60;2.53;;;;;;;10.12;79.84;98386.75;10214104;28;20134;-59
2023/01/09 01:26:16;;;;;;;3.63;2.55;;;;;;;10.20;79.75;98374.09;10210660;28;20055;-59
2023/01/09 01:31:18;;;;;;;3.80;2.72;;;;;;;10.26;79.34;98376.69;10210175;28;20126;-60
2023/01/09 01:36:19;;;;;;;5.28;3.25;;;;;;;10.30;79.24;98372.56;10209056;28;20195;-59
2023/01/09 01:41:30;;;;;;;8.15;3.50;;;;;;;10.15;79.91;98388.19;10213862;28;20055;-58
2023/01/09 01:46:33;;;;;;;6.60;4.00;;;;;;;10.18;79.77;98381.56;10214375;28;20702;-59
2023/01/09 01:51:40;;;;;;;6.18;3.78;;;;;;;10.04;80.46;98386.22;10201316;28;20565;-60
2023/01/09 01:56:45;;;;;;;9.80;4.25;;;;;;;10.01;80.41;98398.25;10208624;28;20126;-59
2023/01/09 02:01:52;;;;;;;4.32;3.28;;;;;;;10.03;80.50;98392.63;10222238;28;20055;-67
2023/01/09 02:06:55;;;;;;;5.63;3.58;;;;;;;10.02;80.46;98399.88;10213059;28;20091;-68
2023/01/09 02:11:59;;;;;;;5.05;2.97;;;;;;;9.95;80.70;98385.66;10211292;28;20063;-68
2023/01/09 02:17:32;;;;;;;5.32;2.88;;;;;;;10.05;80.43;98393.22;10208685;29;20051;-68
2023/01/09 02:22:58;;;;;;;4.25;2.90;;;;;;;10.10;80.00;98399.56;10204957;29;20096;-67
2023/01/09 02:28:32;;;;;;;4.57;2.40;;;;;;;10.10;79.82;98398.75;10204566;28;20070;-66
2023/01/09 02:34:02;;;;;;;5.47;2.55;;;;;;;10.09;79.84;98415.91;10203608;28;20055;-66
2023/01/09 02:39:24;;;;;;;3.53;2.53;;;;;;;10.16;79.61;98415.84;10207052;28;20566;-67
2023/01/09 02:44:29;;;;;;;3.17;2.08;;;;;;;10.10;79.91;98415.69;10219931;28;20071;-68
2023/01/09 02:49:33;;;;;;;4.35;1.90;;;;;;;10.10;79.77;98420.25;10210523;28;20130;-67
2023/01/09 02:55:01;;;;;;;2.90;1.50;;;;;;;10.00;80.03;98414.56;10206950;28;20106;-67
2023/01/09 03:00:12;;;;;;;;;;;;;;;9.98;80.07;98419.31;10213061;28;20051;-67
2023/01/09 03:05:17;;;;;;;2.17;1.60;;;;;;;9.87;80.19;98421.69;10209861;28;20329;-68
2023/01/09 03:10:26;;;;;;;12.05;4.22;;;;;;;9.85;80.31;98431.81;10202387;28;20459;-69
2023/01/09 03:15:33;;;;;;;3.05;2.35;;;;;;;9.82;80.00;98436.78;10205078;28;20139;-66
2023/01/09 03:20:37;;;;;;;3.72;2.03;;;;;;;9.73;80.26;98442.44;10207277;28;20055;-65
2023/01/09 03:25:38;;;;;;;4.43;2.55;;;;;;;9.58;80.86;98452.66;10207194;29;20134;-67
2023/01/09 03:30:40;;;;;;;2.90;1.92;;;;;;;9.53;80.92;98465.88;10213016;28;20473;-65
2023/01/09 03:35:41;;;;;;;5.82;2.40;;;;;;;9.53;80.83;98476.59;10207524;28;20183;-64
2023/01/09 03:40:42;;;;;;;3.55;2.10;;;;;;;9.65;80.49;98482.09;10206840;28;20162;-64
2023/01/09 03:45:44;;;;;;;2.97;1.75;;;;;;;9.65;80.15;98482.09;10209493;28;20513;-67
2023/01/09 03:50:51;;;;;;;4.45;1.13;;;;;;;9.59;80.67;98504.44;10196292;28;20138;-67
2023/01/09 03:55:56;;;;;;;1.77;0.95;;;;;;;9.57;80.37;98506.50;10193596;28;20460;-66
2023/01/09 04:00:59;;;;;;;1.55;0.88;;;;;;;9.53;80.32;98517.66;10206770;28;20138;-69
2023/01/09 04:06:00;;;;;;;1.90;0.63;;;;;;;9.46;80.36;98519.56;10210204;28;20048;-68
2023/01/09 04:11:02;;;;;;;0.30;0.20;;;;;;;9.42;80.34;98525.53;10205597;29;20052;-68
2023/01/09 04:16:03;;;;;;;2.58;0.38;;;;;;;9.38;80.37;98527.84;10206609;28;20055;-67
2023/01/09 04:21:05;;;;;;;1.48;0.20;;;;;;;9.30;80.58;98525.38;10210219;28;20051;-66
2023/01/09 04:26:06;;;;;;;0.43;0.20;;;;;;;9.24;80.41;98536.97;10215367;29;20512;-68
2023/01/09 04:31:08;;;;;;;0.30;0.20;;;;;;;9.23;80.48;98548.75;10208799;28;20099;-67
2023/01/09 04:36:09;;;;;;;1.23;0.22;;;;;;;9.35;79.81;98552.41;10210538;28;20566;-67
2023/01/09 04:41:47;;;;;;;0.20;0.10;;;;;;;9.40;79.97;98567.84;10215631;28;20138;-67
2023/01/09 04:46:32;;;;;;;0.10;0.10;;;;;;;9.43;79.30;98575.47;10200309;28;20106;-67
2023/01/09 04:51:33;;;;;;;0.30;0.10;;;;;;;9.33;79.13;98584.78;10211766;28;20408;-63
2023/01/09 04:56:36;;;;;;;0.17;0.00;;;;;;;9.25;79.18;98597.63;10220928;28;20119;-67
2023/01/09 05:01:37;;;;;;;0.20;0.00;;;;;;;9.12;79.61;98607.34;10217087;28;20060;-66
2023/01/09 05:06:39;;;;;;;0.20;0.10;;;;;;;9.08;79.35;98616.84;10217546;28;20063;-66
2023/01/09 05:11:40;;;;;;;0.50;0.10;;;;;;;9.05;79.51;98625.28;10217281;28;20796;-65
2023/01/09 05:16:41;;;;;;;0.25;0.10;;;;;;;9.00;79.57;98632.28;10204126;28;20154;-67
2023/01/09 05:21:43;;;;;;;1.45;0.10;;;;;;;8.97;79.64;98632.72;10207099;28;20075;-63
2023/01/09 05:26:44;;;;;;;0.15;0.00;;;;;;;8.99;79.22;98634.16;10211406;28;20143;-66
2023/01/09 05:31:45;;;;;;;0.00;0.00;;;;;;;9.03;79.09;98647.97;10209598;29;20571;-66
2023/01/09 05:36:47;;;;;;;1.60;0.10;;;;;;;8.99;79.24;98644.88;10202365;28;20724;-67
2023/01/09 05:41:49;;;;;;;0.90;0.10;;;;;;;8.99;79.18;98649.44;10192958;29;20051;-67
2023/01/09 05:46:50;;;;;;;0.00;0.00;;;;;;;8.98;79.08;98664.66;10200636;29;20058;-67
2023/01/09 05:51:51;;;;;;;1.30;0.10;;;;;;;8.96;78.63;98676.63;10209302;28;20075;-66
2023/01/09 05:56:53;;;;;;;1.25;0.10;;;;;;;8.90;78.53;98689.81;10194063;28;20143;-66
2023/01/09 06:01:54;;;;;;;0.20;0.10;;;;;;;8.86;78.65;98701.97;10208939;28;20058;-66
2023/01/09 06:06:56;;;;;;;1.92;0.20;;;;;;;8.78;78.65;98723.59;10205870;28;20056;-66
2023/01/09 06:11:57;;;;;;;0.32;0.15;;;;;;;8.80;78.87;98737.63;10202924;29;20135;-66
2023/01/09 06:16:59;;;;;;;2.58;0.20;;;;;;;8.77;78.87;98745.25;10203815;29;20439;-66
2023/01/09 06:22:00;;;;;;;0.60;0.20;;;;;;;8.82;78.99;98748.13;10201396;28;20066;-65
2023/01/09 06:27:01;;;;;;;0.30;0.10;;;;;;;8.84;78.88;98760.28;10211962;28;20068;-66
2023/01/09 06:32:03;;;;;;;2.25;0.20;;;;;;;8.82;78.40;98764.22;10214062;29;20047;-66
2023/01/09 06:37:05;;;;;;;0.52;0.30;;;;;;;8.79;78.53;98770.81;10201707;28;20523;-67
2023/01/09 06:42:06;;;;;;;0.85;0.20;;;;;;;8.77;79.13;98775.56;10215075;28;20118;-67
2023/01/09 06:47:07;;;;;;;1.20;0.10;;;;;;;8.80;78.88;98777.00;10197888;29;20062;-66
2023/01/09 06:52:09;;;;;;;3.33;0.38;;;;;;;8.80;79.11;98791.22;10211266;28;20569;-64
2023/01/09 06:57:10;;;;;;;1.95;0.20;;;;;;;8.85;78.94;98788.75;10197537;29;20462;-66
2023/01/09 07:02:17;;;;;;;2.05;0.20;;;;;;;8.96;78.23;98792.66;10208126;28;20067;-67
2023/01/09 07:07:21;;;;;;;1.75;0.65;;;;;;;8.95;78.57;98798.25;10207647;28;20139;-68
2023/01/09 07:12:22;;;;;;;0.75;0.20;;;;;;;8.95;78.71;98801.75;10207361;28;20051;-67
2023/01/09 07:17:24;;;;;;;3.95;0.85;;;;;;;8.85;78.51;98799.47;10197380;28;20051;-67
2023/01/09 07:22:25;;;;;;;0.45;0.30;;;;;;;8.99;78.48;98807.53;10199610;28;20135;-66
2023/01/09 07:27:27;;;;;;;3.03;0.75;;;;;;;9.06;78.23;98819.06;10197958;28;20143;-65
2023/01/09 07:32:28;;;;;;;3.70;0.30;;;;;;;9.06;77.80;98827.13;10199562;28;20155;-66
2023/01/09 07:37:29;;;;;;;1.65;0.30;;;;;;;9.09;77.59;98832.91;10201506;29;20126;-66
2023/01/09 07:42:31;;;;;;;0.32;0.30;;;;;;;9.12;77.48;98835.19;10206005;28;20139;-66
2023/01/09 07:47:32;;;;;;;3.10;0.35;;;;;;;9.18;77.33;98832.69;10211159;28;20134;-66
2023/01/09 07:52:34;;;;;;;3.00;0.70;;;;;;;9.12;77.06;98837.88;10212087;28;20506;-65
2023/01/09 07:57:35;;;;;;;3.97;0.40;;;;;;;9.15;77.14;98842.00;10205503;28;20071;-66
2023/01/09 08:02:36;;;;;;;2.05;0.20;;;;;;;9.14;76.95;98851.03;10201684;28;20110;-67
2023/01/09 08:07:38;;;;;;;3.58;0.30;;;;;;;9.13;76.71;98852.09;10204202;28;20044;-66
2023/01/09 08:12:42;;;;;;;2.88;0.40;;;;;;;9.16;76.64;98851.66;10202647;28;20158;-67
2023/01/09 08:17:45;;;;;;;2.95;0.20;;;;;;;9.23;76.26;98847.16;10212509;28;20596;-65
2023/01/09 08:22:50;;;;;;;3.13;0.22;;;;;;;9.24;76.46;98843.44;10210019;28;20510;-66
2023/01/09 08:27:52;;;;;;;3.17;0.28;;;;;;;9.24;76.11;98850.66;10212188;28;20083;-66
2023/01/09 08:32:53;;;;;;;3.17;0.20;;;;;;;9.32;75.87;98847.75;10201269;28;20115;-66
2023/01/09 08:37:55;;;;;;;0.50;0.10;;;;;;;9.32;76.24;98859.34;10215601;29;20854;-66
2023/01/09 08:48:16;;;;;;;0.60;0.40;;;;;;;9.35;76.14;98857.28;10210886;28;20067;-66
2023/01/09 08:53:18;;;;;;;3.05;0.20;;;;;;;9.46;76.02;98856.69;10214175;29;20074;-65
2023/01/09 08:58:19;;;;;;;3.72;0.20;;;;;;;9.55;75.82;98865.34;10220907;28;20055;-66
2023/01/09 09:03:20;;;;;;;2.05;0.90;;;;;;;9.56;75.86;98851.72;10214865;28;20137;-67
2023/01/09 09:08:22;;;;;;;3.70;0.30;;;;;;;9.52;75.88;98853.97;10209966;28;20082;-67
2023/01/09 09:13:23;;;;;;;2.90;0.20;;;;;;;9.58;75.64;98859.53;10208635;29;20469;-67
2023/01/09 09:18:24;;;;;;;2.05;0.40;;;;;;;9.56;75.68;98865.13;10207291;28;20064;-65
2023/01/09 09:23:26;;;;;;;2.33;0.30;;;;;;;9.65;75.56;98865.75;10209053;28;20052;-67
2023/01/09 09:28:27;;;;;;;1.45;0.20;;;;;;;9.77;75.25;98861.38;10218250;28;20058;-66
2023/01/09 09:33:29;;;;;;;2.13;0.20;;;;;;;9.80;75.22;98881.63;10213008;28;20094;-66
2023/01/09 09:38:30;;;;;;;0.93;0.10;;;;;;;9.90;75.07;98860.56;10207763;28;20048;-66
2023/01/09 09:49:27;;;;;;;1.85;0.73;;;;;;;10.17;74.30;98850.63;10206704;28;20078;-67
2023/01/09 09:54:37;;;;;;;2.22;0.20;;;;;;;10.34;73.92;98851.00;10213740;28;20047;-67
2023/01/09 09:59:41;;;;;;;2.03;0.10;;;;;;;10.30;73.92;98853.28;10216991;28;20063;-67
2023/01/09 10:04:49;;;;;;;0.75;0.10;;;;;;;10.31;73.72;98854.13;10207382;28;20078;-68
2023/01/09 10:09:54;;;;;;;4.10;0.20;;;;;;;10.31;73.79;98862.19;10210377;28;20469;-67
2023/01/09 10:14:58;;;;;;;0.28;0.10;;;;;;;10.26;73.79;98861.94;10211333;28;20117;-66
2023/01/09 10:20:23;;;;;;;2.97;0.32;;;;;;;10.26;73.86;98849.31;10207632;28;20051;-67
2023/01/09 10:25:30;;;;;;;1.85;0.15;;;;;;;10.18;73.91;98846.88;10215299;28;20414;-67
2023/01/09 10:30:40;;;;;;;2.27;0.23;;;;;;;10.12;74.18;98848.53;10206968;28;20499;-67
2023/01/09 10:36:13;;;;;;;1.55;0.30;;;;;;;10.05;74.62;98841.53;10211917;28;20082;-66
2023/01/09 10:41:17;;;;;;;0.20;0.20;;;;;;;10.16;74.87;98840.06;10213026;28;20090;-66
2023/01/09 10:46:37;;;;;;;3.65;0.13;;;;;;;10.20;74.41;98849.34;10206055;28;20079;-66
2023/01/09 10:51:46;;;;;;;4.68;0.20;;;;;;;10.29;74.22;98845.41;10198206;28;20047;-66
2023/01/09 10:57:13;;;;;;;0.60;0.15;;;;;;;10.38;74.26;98846.84;10197473;28;20726;-67
2023/01/09 11:02:26;;;;;;;1.20;0.82;;;;;;;10.34;74.14;98852.84;10202679;28;20150;-67
2023/01/09 11:07:37;;;;;;;2.60;0.20;;;;;;;10.42;73.96;98863.38;10186004;29;20144;-66
2023/01/09 11:12:39;;;;;;;1.33;0.10;;;;;;;10.40;74.17;98874.31;10200710;28;20444;-66
2023/01/09 11:17:41;;;;;;;3.70;0.20;;;;;;;10.29;74.37;98870.41;10202821;28;20050;-66
2023/01/09 11:22:48;;;;;;;1.90;0.20;;;;;;;10.36;74.19;98869.59;10215866;28;20063;-68
2023/01/09 11:28:01;;;;;;;3.85;0.20;;;;;;;10.09;74.42;98873.13;10213345;28;20058;-67
2023/01/09 11:33:14;;;;;;;2.83;0.20;;;;;;;10.03;75.42;98868.63;10209225;28;20119;-68
2023/01/09 11:38:17;;;;;;;3.67;0.30;;;;;;;10.06;75.02;98867.34;10206753;28;20082;-67
2023/01/09 11:43:29;;;;;;;1.60;0.20;;;;;;;10.10;74.68;98874.78;10205849;28;20152;-66
2023/01/09 11:48:55;;;;;;;2.20;0.20;;;;;;;10.19;74.28;98874.53;10207032;28;20115;-67
2023/01/09 11:54:06;;;;;;;1.73;0.35;;;;;;;10.25;73.98;98869.19;10194828;28;20051;-68
2023/01/09 11:59:17;;;;;;;2.50;0.30;;;;;;;10.31;73.71;98875.59;10215096;28;20089;-67
2023/01/09 12:04:36;;;;;;;3.22;0.30;;;;;;;10.40;73.38;98868.94;10213241;28;20075;-68
2023/01/09 12:10:18;;;;;;;0.70;0.30;;;;;;;10.52;73.36;98866.44;10214654;28;20526;-67
2023/01/09 12:15:44;;;;;;;1.65;0.10;;;;;;;10.57;72.79;98871.19;10210086;28;20131;-67
2023/01/09 12:21:13;;;;;;;3.38;0.30;;;;;;;10.48;72.08;98878.63;10209989;28;20052;-67
2023/01/09 12:26:22;;;;;;;0.73;0.20;;;;;;;10.45;72.47;98874.53;10214032;28;20075;-67
2023/01/09 12:31:45;;;;;;;4.15;0.20;;;;;;;10.35;72.03;98878.66;10216600;28;20118;-66
2023/01/09 12:37:40;;;;;;;1.65;0.30;;;;;;;10.33;72.34;98873.53;10212952;28;20174;-66
2023/01/09 12:42:44;;;;;;;3.50;0.35;;;;;;;10.30;71.62;98869.38;10253583;28;20709;-68
2023/01/09 12:47:48;;;;;;;1.67;0.28;;;;;;;10.29;71.44;98883.84;10296280;28;20047;-68
2023/01/09 12:53:16;;;;;;;1.88;0.35;;;;;;;10.20;71.45;98885.09;10288383;28;20305;-67
2023/01/09 12:58:33;;;;;;;5.65;0.98;;;;;;;10.37;71.14;98904.31;10288080;28;20125;-66
2023/01/09 13:04:15;;;;;;;2.95;0.30;;;;;;;10.41;71.49;98907.41;10295384;28;20126;-68
2023/01/09 13:09:24;;;;;;;4.32;0.30;;;;;;;10.57;71.04;98908.78;10262381;28;20078;-67
2023/01/09 13:15:06;;;;;;;2.65;0.20;;;;;;;10.69;71.22;98904.41;10281591;28;20105;-67
2023/01/09 13:20:38;;;;;;;4.22;0.35;;;;;;;10.76;71.34;98912.44;10247364;28;20145;-67
2023/01/09 13:25:48;;;;;;;0.88;0.30;;;;;;;10.73;71.03;98908.31;10286357;28;20043;-66
2023/01/09 13:31:12;;;;;;;1.60;0.20;;;;;;;10.70;71.07;98914.09;10291143;28;20137;-68
2023/01/09 13:36:25;;;;;;;1.67;0.13;;;;;;;10.78;71.08;98896.91;10281468;28;20079;-67
2023/01/09 13:46:51;;;;;;;0.47;0.10;;;;;;;10.69;70.57;98905.22;10285869;28;20743;-67
2023/01/09 13:51:59;;;;;;;0.68;0.10;;;;;;;10.74;70.34;98903.75;10284469;28;20523;-67
2023/01/09 13:57:19;;;;;;;1.30;0.03;;;;;;;10.80;69.78;98914.50;10276730;28;20074;-67
2023/01/09 14:02:32;;;;;;;0.30;0.10;;;;;;;10.80;69.65;98917.19;10279070;28;20046;-67
2023/01/09 14:07:42;;;;;;;2.92;0.10;;;;;;;10.81;68.99;98936.81;10280140;28;20109;-66
2023/01/09 14:12:43;;;;;;;0.45;0.10;;;;;;;10.82;68.91;98935.78;10286272;28;20137;-66
2023/01/09 14:17:45;;;;;;;0.10;0.00;;;;;;;10.82;68.48;98933.94;10279188;28;20593;-66
2023/01/09 14:22:46;;;;;;;0.45;0.05;;;;;;;10.89;68.17;98948.16;10276991;28;20054;-66
2023/01/09 14:28:27;;;;;;;1.35;0.40;;;;;;;10.88;68.18;98956.41;10272261;28;20054;-66
2023/01/09 14:33:31;;;;;;;1.15;0.10;;;;;;;10.95;67.43;98959.91;10279231;28;20810;-65
2023/01/09 14:38:36;;;;;;;2.70;0.10;;;;;;;10.87;67.73;98962.84;10269885;28;20047;-66
2023/01/09 14:43:50;;;;;;;0.17;0.00;;;;;;;10.78;67.33;98969.50;10269618;28;20126;-67
2023/01/09 14:49:02;;;;;;;1.63;0.17;;;;;;;10.81;67.53;98975.28;10276778;28;20134;-67
2023/01/09 14:54:18;;;;;;;0.90;0.10;;;;;;;10.76;67.10;98985.81;10277811;28;20063;-67
2023/01/09 14:59:19;;;;;;;0.70;0.20;;;;;;;10.68;67.05;98996.81;10272839;28;20512;-66
2023/01/09 15:04:30;;;;;;;0.40;0.10;;;;;;;10.67;67.14;99013.97;10274772;28;20047;-65
2023/01/09 15:09:44;;;;;;;2.63;0.20;;;;;;;10.66;67.47;99023.06;10285352;28;20154;-64
2023/01/09 15:14:51;;;;;;;0.60;0.15;;;;;;;10.65;67.35;99038.38;10273097;28;20109;-66
2023/01/09 15:19:53;;;;;;;1.50;0.13;;;;;;;10.54;67.51;99047.06;10279708;28;20179;-66
2023/01/09 15:24:56;;;;;;;1.58;0.20;;;;;;;10.58;67.46;99059.03;10259933;28;20074;-65
2023/01/09 15:30:14;;;;;;;0.75;0.17;;;;;;;10.47;67.41;99071.25;10276241;28;20109;-66
2023/01/09 15:35:15;;;;;;;2.05;0.57;;;;;;;10.43;67.72;99072.69;10275346;28;20796;-65
2023/01/09 15:40:21;;;;;;;1.08;0.30;;;;;;;10.36;67.76;99084.47;10273539;28;20086;-65
2023/01/09 15:45:34;;;;;;;2.20;0.93;;;;;;;10.33;67.62;99099.16;10270505;28;20152;-66
2023/01/09 15:50:35;;;;;;;1.15;0.50;;;;;;;10.06;68.22;99098.25;10273817;28;20154;-65
2023/01/09 15:55:37;;;;;;;0.50;0.30;;;;;;;9.92;68.23;99100.91;10269808;28;20146;-66
2023/01/09 16:00:41;;;;;;;1.88;0.40;;;;;;;9.96;68.14;99105.88;10263200;28;20130;-66
2023/01/09 16:06:04;;;;;;;1.10;0.30;;;;;;;9.95;68.17;99107.69;10281035;28;20042;-64
2023/01/09 16:11:08;;;;;;;2.97;0.30;;;;;;;10.01;67.91;99114.13;10279335;28;20094;-67
2023/01/09 16:16:12;;;;;;;3.92;0.57;;;;;;;9.97;67.93;99121.75;10281277;28;20078;-68
2023/01/09 16:21:23;;;;;;;1.60;0.38;;;;;;;10.01;67.90;99144.50;10272653;28;20509;-68
2023/01/09 16:26:27;;;;;;;2.80;0.20;;;;;;;9.98;68.04;99150.25;10283859;28;20077;-70
2023/01/09 16:31:29;;;;;;;2.28;0.30;;;;;;;9.96;68.17;99141.59;10279814;28;20458;-67
2023/01/09 16:36:33;;;;;;;1.83;0.40;;;;;;;9.93;67.89;99158.94;10281794;28;20050;-68
2023/01/09 16:46:55;;;;;;;2.17;0.30;;;;;;;9.68;68.93;99180.09;10271351;28;20082;-67
2023/01/09 16:52:01;;;;;;;1.25;0.30;;;;;;;9.59;69.41;99193.88;10288809;28;20113;-67
2023/01/09 16:57:03;;;;;;;1.52;0.20;;;;;;;8.95;71.28;99213.66;10290274;28;20794;-64
2023/01/09 17:02:16;;;;;;;0.75;0.20;;;;;;;8.69;72.53;99223.13;10285190;28;20055;-70
2023/01/09 17:07:18;;;;;;;0.65;0.30;;;;;;;8.68;72.71;99230.31;10282983;28;20062;-67
2023/01/09 17:12:23;;;;;;;1.60;0.20;;;;;;;8.74;72.13;99237.56;10281270;28;20046;-65
2023/01/09 17:17:25;;;;;;;0.47;0.20;;;;;;;8.85;71.72;99233.56;10280396;28;20149;-66
2023/01/09 17:22:26;;;;;;;1.58;0.30;;;;;;;9.02;71.79;99249.38;10288008;28;20566;-66
2023/01/09 17:32:53;;;;;;;1.30;0.70;;;;;;;9.10;71.51;99268.00;10278938;28;20165;-66
2023/01/09 17:37:54;;;;;;;2.50;0.38;;;;;;;9.09;71.58;99272.53;10282446;28;20142;-64
2023/01/09 17:42:55;;;;;;;2.10;0.60;;;;;;;9.05;71.93;99281.97;10281799;28;20042;-65
2023/01/09 17:47:57;;;;;;;1.75;0.35;;;;;;;9.06;71.84;99294.38;10284056;28;20091;-65
2023/01/09 17:52:58;;;;;;;5.28;0.30;;;;;;;9.07;71.90;99293.34;10283304;28;20063;-65
2023/01/09 17:57:59;;;;;;;0.75;0.35;;;;;;;9.02;71.94;99309.16;10277966;28;20051;-65
2023/01/09 18:03:03;;;;;;;2.80;0.52;;;;;;;9.06;71.91;99317.66;10282567;28;20592;-64
2023/01/09 18:08:07;;;;;;;1.98;0.40;;;;;;;9.03;71.78;99326.91;10285384;28;20074;-63
2023/01/09 18:13:10;;;;;;;1.00;0.32;;;;;;;9.00;71.58;99331.81;10286634;28;20130;-66
2023/01/09 18:18:11;;;;;;;2.05;0.40;;;;;;;9.06;71.58;99350.66;10274140;28;20162;-65
2023/01/09 18:23:13;;;;;;;3.70;0.50;;;;;;;9.07;71.43;99356.84;10265829;28;20090;-66
2023/01/09 18:28:14;;;;;;;0.40;0.20;;;;;;;9.03;71.43;99377.03;10281153;28;20054;-65
2023/01/09 18:33:16;;;;;;;1.17;0.20;;;;;;;9.04;71.12;99387.53;10286355;28;20050;-66
2023/01/09 18:38:18;;;;;;;2.38;0.20;;;;;;;9.09;71.22;99400.38;10285424;28;20145;-66
2023/01/09 18:43:20;;;;;;;1.00;0.20;;;;;;;9.06;71.12;99411.47;10293636;28;20582;-65
2023/01/09 18:48:22;;;;;;;3.83;0.73;;;;;;;9.06;71.07;99417.69;10277374;28;20054;-66
2023/01/09 18:53:23;;;;;;;2.00;0.50;;;;;;;8.96;70.89;99413.63;10284559;28;20148;-65
2023/01/09 18:58:24;;;;;;;0.17;0.17;;;;;;;8.83;71.32;99438.44;10290637;28;20142;-66
2023/01/09 19:03:27;;;;;;;1.25;0.30;;;;;;;8.79;70.98;99442.50;10282319;28;20109;-63
2023/01/09 19:08:30;;;;;;;0.77;0.40;;;;;;;8.79;70.83;99458.56;10283598;28;20401;-66
2023/01/09 19:13:34;;;;;;;1.02;0.60;;;;;;;8.84;70.56;99451.63;10280450;28;20316;-67
2023/01/09 19:18:38;;;;;;;1.25;0.45;;;;;;;8.85;70.04;99458.66;10275766;28;20042;-67
2023/01/09 19:23:41;;;;;;;6.30;0.50;;;;;;;8.87;69.87;99467.34;10287376;28;20410;-65
2023/01/09 19:28:45;;;;;;;2.90;0.40;;;;;;;8.80;69.93;99479.81;10271639;28;20114;-68
2023/01/09 19:33:46;;;;;;;0.52;0.45;;;;;;;8.73;69.85;99474.38;10261450;28;20094;-67
2023/01/09 19:38:48;;;;;;;0.50;0.20;;;;;;;8.65;69.96;99479.00;10276589;28;20069;-67
2023/01/09 19:43:49;;;;;;;2.90;0.70;;;;;;;8.58;70.06;99488.81;10280739;28;21069;-66
2023/01/09 19:48:52;;;;;;;0.57;0.43;;;;;;;8.51;70.21;99500.25;10273267;28;20130;-67
2023/01/09 19:53:58;;;;;;;2.80;0.45;;;;;;;8.42;69.70;99506.69;10274966;28;20070;-67
2023/01/09 19:59:01;;;;;;;0.95;0.30;;;;;;;8.41;70.38;99522.91;10263690;28;20055;-65
2023/01/09 20:04:06;;;;;;;0.93;0.20;;;;;;;8.39;69.58;99528.44;10275743;28;20153;-65
2023/01/09 20:09:10;;;;;;;1.67;0.60;;;;;;;8.42;69.66;99535.34;10275556;28;20083;-64
2023/01/09 20:14:14;;;;;;;3.45;0.20;;;;;;;8.44;69.54;99560.91;10277839;28;20087;-68
2023/01/09 20:19:16;;;;;;;2.13;0.25;;;;;;;8.42;69.53;99573.66;10289160;28;20130;-67
2023/01/09 20:24:17;;;;;;;2.75;0.30;;;;;;;8.42;69.27;99573.66;10282812;28;20078;-68
2023/01/09 20:29:19;;;;;;;2.88;0.60;;;;;;;8.49;69.05;99582.63;10289561;28;20046;-67
2023/01/09 20:34:21;;;;;;;1.45;0.30;;;;;;;8.46;69.25;99584.84;10288088;28;20118;-66
2023/01/09 20:39:22;;;;;;;2.15;0.30;;;;;;;8.48;68.77;99613.09;10285408;28;20086;-67
2023/01/09 20:44:23;;;;;;;2.53;0.40;;;;;;;8.39;68.69;99616.81;10281331;28;20057;-66
2023/01/09 20:49:25;;;;;;;1.10;0.30;;;;;;;8.42;68.53;99637.94;10287211;28;20074;-68
2023/01/09 20:54:26;;;;;;;3.55;0.43;;;;;;;8.39;68.81;99624.03;10287069;28;20113;-68
2023/01/09 20:59:28;;;;;;;4.25;0.40;;;;;;;8.27;68.60;99643.22;10288353;28;20161;-67
2023/01/09 21:04:30;;;;;;;3.20;0.60;;;;;;;8.24;68.63;99640.06;10279863;28;20453;-68
2023/01/09 21:09:31;;;;;;;4.10;0.70;;;;;;;8.13;68.54;99655.50;10281871;28;20073;-68
2023/01/09 21:14:34;;;;;;;1.33;0.88;;;;;;;8.14;68.98;99667.06;10283696;28;20805;-68
2023/01/09 21:19:36;;;;;;;2.92;0.40;;;;;;;8.13;68.42;99668.06;10293491;28;20055;-67
2023/01/09 21:24:37;;;;;;;1.77;0.40;;;;;;;8.11;68.35;99667.41;10286230;28;20079;-66
2023/01/09 21:29:38;;;;;;;1.98;0.40;;;;;;;8.02;68.53;99674.66;10288799;28;20078;-66
2023/01/09 21:34:40;;;;;;;4.35;0.55;;;;;;;8.01;69.19;99677.50;10278668;28;20074;-68
2023/01/09 21:39:42;;;;;;;2.22;0.40;;;;;;;7.98;68.73;99700.09;10281765;28;20055;-66
2023/01/09 21:50:04;;;;;;;2.88;0.50;;;;;;;7.93;69.77;99710.50;10286404;28;20078;-66
2023/01/09 21:55:05;;;;;;;3.53;1.00;;;;;;;7.97;70.06;99725.19;10278360;28;20129;-62
2023/01/09 22:00:07;;;;;;;4.43;0.40;;;;;;;7.94;70.02;99729.06;10276465;28;20082;-67
2023/01/09 22:05:09;;;;;;;3.00;0.55;;;;;;;7.97;69.78;99729.72;10275056;28;20069;-67
2023/01/09 22:10:11;;;;;;;2.53;0.40;;;;;;;7.92;69.79;99739.09;10283415;28;20153;-65
2023/01/09 22:15:12;;;;;;;5.72;0.50;;;;;;;7.86;70.50;99747.81;10273390;28;20145;-66
2023/01/09 22:20:13;;;;;;;2.05;0.40;;;;;;;7.85;70.48;99750.66;10280218;28;20145;-65
2023/01/09 22:25:15;;;;;;;2.63;0.60;;;;;;;7.82;69.70;99764.38;10280902;28;20046;-66
2023/01/09 22:30:16;;;;;;;2.92;0.70;;;;;;;7.81;69.57;99776.94;10279467;28;20498;-67
2023/01/09 22:35:18;;;;;;;5.20;0.75;;;;;;;7.77;70.43;99791.66;10282932;28;20094;-67
2023/01/09 22:40:19;;;;;;;2.33;0.45;;;;;;;7.73;70.37;99801.03;10285538;28;20061;-66
2023/01/09 22:45:20;;;;;;;2.53;0.47;;;;;;;7.73;70.20;99807.22;10287121;28;20165;-68
2023/01/09 22:50:22;;;;;;;4.63;0.50;;;;;;;7.75;69.87;99809.72;10271334;28;20075;-67
2023/01/09 22:55:23;;;;;;;1.35;0.30;;;;;;;7.72;70.38;99820.75;10280776;28;20051;-66
2023/01/09 23:00:27;;;;;;;4.72;0.50;;;;;;;7.68;70.57;99830.97;10290366;28;20133;-66
2023/01/09 23:05:28;;;;;;;1.60;0.50;;;;;;;7.64;70.36;99839.50;10282684;28;20146;-67
2023/01/09 23:10:30;;;;;;;3.10;0.50;;;;;;;7.72;70.72;99836.81;10278802;28;20055;-63
2023/01/09 23:15:31;;;;;;;3.53;0.40;;;;;;;7.82;71.17;99847.31;10276121;28;20524;-65
2023/01/09 23:20:32;;;;;;;1.20;0.45;;;;;;;7.83;71.01;99862.38;10284805;28;20088;-68
2023/01/09 23:25:34;;;;;;;3.45;0.55;;;;;;;7.94;70.28;99859.34;10283291;28;20046;-65
2023/01/09 23:30:35;;;;;;;3.78;0.40;;;;;;;8.00;70.46;99866.69;10275676;28;20172;-68
2023/01/09 23:35:37;;;;;;;4.60;0.47;;;;;;;8.01;70.50;99872.88;10278679;28;20098;-66
2023/01/09 23:40:42;;;;;;;3.25;0.98;;;;;;;8.04;70.28;99883.25;10272613;28;20057;-66
2023/01/09 23:45:44;;;;;;;2.33;0.40;;;;;;;8.00;70.96;99888.13;10282144;28;20155;-66
2023/01/09 23:50:48;;;;;;;1.85;0.40;;;;;;;8.03;71.19;99892.28;10280838;28;20061;-66
2023/01/09 23:55:54;;;;;;;0.77;0.30;;;;;;;8.08;70.38;99908.69;10276608;28;20609;-65
